createdAt,value
2022-10-11T00:03:00.493Z,1.6
2022-10-11T00:05:16.668Z,1.9
2022-10-11T00:10:17.246Z,1.7
2022-10-11T00:15:17.936Z,1.5
2022-10-11T00:20:18.505Z,1.7
2022-10-11T00:25:19.056Z,1.6
2022-10-11T00:30:19.678Z,1.7
2022-10-11T00:35:20.148Z,2.2
2022-10-11T00:40:20.747Z,1.2
2022-10-11T00:45:21.427Z,1.3
2022-10-11T00:50:21.936Z,0.9
2022-10-11T00:55:22.571Z,1.4
2022-10-11T01:00:23.165Z,1.3
2022-10-11T01:05:29.687Z,1.2
2022-10-11T01:10:24.498Z,1.6
2022-10-11T01:15:25.127Z,1.5
2022-10-11T01:20:25.661Z,1.1
2022-10-11T01:25:26.165Z,1.3
2022-10-11T01:30:26.878Z,1.1
2022-10-11T01:35:27.485Z,1.2
2022-10-11T01:40:28.028Z,1.3
2022-10-11T01:45:28.756Z,1.4
2022-10-11T01:50:29.198Z,1.3
2022-10-11T01:55:29.907Z,1.3
2022-10-11T02:00:30.567Z,1.3
2022-10-11T02:05:31.017Z,1.4
2022-10-11T02:10:31.649Z,1.6
2022-10-11T02:15:32.386Z,0.9
2022-10-11T02:20:32.821Z,1.3
2022-10-11T02:25:33.536Z,1.0
2022-10-11T02:30:34.108Z,1.5
2022-10-11T02:35:34.726Z,2.0
2022-10-11T02:40:35.336Z,1.5
2022-10-11T02:45:35.949Z,1.1
2022-10-11T02:50:36.509Z,1.4
2022-10-11T02:55:37.088Z,1.6
2022-10-11T03:00:37.892Z,2.3
2022-10-11T03:05:38.387Z,1.7
2022-10-11T03:10:38.915Z,2.1
2022-10-11T03:15:39.826Z,1.9
2022-10-11T03:20:40.138Z,1.9
2022-10-11T03:25:40.814Z,1.9
2022-10-11T03:30:41.438Z,1.9
2022-10-11T03:35:41.840Z,2.0
2022-10-11T03:40:42.586Z,1.5
2022-10-11T03:45:43.259Z,1.7
2022-10-11T03:50:43.617Z,1.9
2022-10-11T03:55:44.281Z,1.6
2022-10-11T04:00:44.956Z,2.0
2022-10-11T04:05:45.496Z,1.3
2022-10-11T04:10:46.065Z,1.2
2022-10-11T04:15:46.922Z,1.0
2022-10-11T04:20:47.152Z,1.4
2022-10-11T04:25:47.785Z,1.3
2022-10-11T04:30:48.486Z,1.2
2022-10-11T04:35:48.905Z,1.5
2022-10-11T04:40:49.587Z,1.3
2022-10-11T04:45:54.644Z,0.9
2022-10-11T04:50:50.615Z,1.6
2022-10-11T04:55:51.263Z,1.5
2022-10-11T05:00:51.979Z,1.6
2022-10-11T05:05:52.455Z,2.0
2022-10-11T05:10:53.027Z,2.4
2022-10-11T05:15:53.827Z,1.8
2022-10-11T05:20:54.403Z,1.4
2022-10-11T05:25:54.786Z,1.6
2022-10-11T05:30:55.627Z,1.5
2022-10-11T05:35:56.030Z,1.3
2022-10-11T05:40:56.778Z,1.1
2022-10-11T05:45:57.665Z,1.6
2022-10-11T05:50:57.917Z,1.3
2022-10-11T05:55:58.575Z,1.4
2022-10-11T06:00:59.183Z,1.5
2022-10-11T06:05:59.778Z,1.4
2022-10-11T06:11:00.337Z,1.3
2022-10-11T06:16:00.955Z,1.4
2022-10-11T06:21:01.514Z,1.4
2022-10-11T06:26:02.287Z,1.2
2022-10-11T06:31:02.746Z,1.3
2022-10-11T06:36:03.558Z,1.4
2022-10-11T06:41:03.725Z,1.5
2022-10-11T06:46:04.713Z,1.2
2022-10-11T06:51:04.925Z,1.6
2022-10-11T06:56:06.154Z,1.5
2022-10-11T07:01:06.186Z,1.1
2022-10-11T07:06:07.013Z,1.5
2022-10-11T07:11:07.223Z,1.6
2022-10-11T07:16:08.336Z,1.5
2022-10-11T07:21:08.500Z,2.3
2022-10-11T07:26:09.481Z,2.1
2022-10-11T07:31:09.749Z,1.8
2022-10-11T07:36:10.155Z,1.7
2022-10-11T07:41:10.790Z,1.8
2022-10-11T07:46:11.513Z,1.9
2022-10-11T07:51:11.867Z,1.9
2022-10-11T07:56:12.586Z,1.3
2022-10-11T08:01:13.243Z,1.6
2022-10-11T08:06:13.786Z,1.4
2022-10-11T08:11:14.399Z,1.2
2022-10-11T08:16:15.304Z,1.4
2022-10-11T08:21:15.579Z,1.3
2022-10-11T08:26:16.228Z,1.0
2022-10-11T08:31:16.945Z,1.5
2022-10-11T08:36:17.479Z,1.3
2022-10-11T08:41:18.011Z,1.1
2022-10-11T08:46:18.838Z,1.2
2022-10-11T08:51:19.325Z,1.5
2022-10-11T08:56:19.795Z,2.2
2022-10-11T09:01:20.617Z,1.3
2022-10-11T09:06:21.027Z,1.2
2022-10-11T09:11:21.656Z,1.2
2022-10-11T09:16:22.499Z,1.4
2022-10-11T09:21:22.777Z,1.6
2022-10-11T09:26:23.377Z,1.1
2022-10-11T09:31:24.018Z,1.7
2022-10-11T09:36:24.545Z,1.9
2022-10-11T09:41:25.108Z,1.4
2022-10-11T09:46:25.837Z,0.9
2022-10-11T09:51:26.367Z,1.3
2022-10-11T09:56:26.944Z,1.4
2022-10-11T10:01:28.019Z,1.1
2022-10-11T10:06:28.176Z,1.2
2022-10-11T10:11:28.877Z,1.1
2022-10-11T10:16:29.639Z,1.0
2022-10-11T10:21:30.002Z,1.2
2022-10-11T10:26:30.700Z,1.2
2022-10-11T10:31:34.661Z,1.2
2022-10-11T10:36:31.852Z,1.0
2022-10-11T10:41:32.517Z,1.1
2022-10-11T10:46:33.209Z,0.9
2022-10-11T10:51:33.829Z,1.2
2022-10-11T10:56:34.406Z,1.4
2022-10-11T11:01:35.111Z,1.2
2022-10-11T11:06:36.679Z,1.2
2022-10-11T11:11:36.249Z,0.8
2022-10-11T11:16:37.202Z,1.3
2022-10-11T11:21:41.344Z,0.9
2022-10-11T11:26:41.995Z,1.1
2022-10-11T11:31:38.799Z,1.0
2022-10-11T11:36:39.394Z,1.0
2022-10-11T11:41:39.898Z,1.3
2022-10-11T11:46:40.618Z,1.1
2022-10-11T11:51:41.068Z,1.0
2022-10-11T11:56:41.693Z,0.9
2022-10-11T12:01:42.388Z,0.8
2022-10-11T12:07:04.075Z,0.9
2022-10-11T12:11:43.430Z,1.2
2022-10-11T12:16:44.300Z,0.8
2022-10-11T12:21:44.657Z,0.9
2022-10-11T12:26:45.359Z,0.9
2022-10-11T12:31:46.230Z,0.9
2022-10-11T12:36:46.646Z,1.0
2022-10-11T12:41:47.020Z,1.1
2022-10-11T12:46:47.800Z,0.8
2022-10-11T12:51:48.335Z,1.4
2022-10-11T12:56:48.911Z,1.0
2022-10-11T13:01:49.629Z,1.1
2022-10-11T13:06:50.067Z,1.1
2022-10-11T13:11:50.809Z,0.8
2022-10-11T13:16:51.829Z,1.0
2022-10-11T13:21:51.878Z,0.9
2022-10-11T13:26:52.518Z,0.6
2022-10-11T13:31:53.197Z,0.7
2022-10-11T13:36:53.762Z,1.5
2022-10-11T13:41:54.377Z,0.8
2022-10-11T13:46:55.025Z,0.9
2022-10-11T13:51:55.630Z,0.6
2022-10-11T13:56:56.130Z,0.4
2022-10-11T14:01:56.920Z,1.1
2022-10-11T14:06:57.394Z,1.5
2022-10-11T14:11:57.899Z,0.9
2022-10-11T14:16:59.184Z,0.9
2022-10-11T14:21:59.082Z,1.0
2022-10-11T14:26:59.869Z,0.6
2022-10-11T14:32:00.751Z,0.7
2022-10-11T14:37:00.940Z,1.1
2022-10-11T14:42:01.764Z,0.7
2022-10-11T14:47:02.458Z,1.1
2022-10-11T14:52:02.851Z,0.8
2022-10-11T14:57:03.613Z,0.9
2022-10-11T15:02:04.232Z,0.7
2022-10-11T15:07:04.833Z,0.5
2022-10-11T15:12:05.466Z,0.4
2022-10-11T15:17:06.398Z,0.5
2022-10-11T15:22:06.724Z,0.3
2022-10-11T15:27:07.363Z,0.5
2022-10-11T15:32:08.054Z,0.4
2022-10-11T15:37:08.706Z,0.3
2022-10-11T15:42:09.253Z,0.8
2022-10-11T15:47:10.022Z,0.5
2022-10-11T15:52:10.574Z,0.7
2022-10-11T15:57:11.088Z,0.9
2022-10-11T16:02:11.830Z,1.0
2022-10-11T16:07:12.408Z,1.0
2022-10-11T16:12:12.926Z,1.3
2022-10-11T16:17:14.227Z,0.9
2022-10-11T16:22:14.090Z,0.8
2022-10-11T16:27:18.713Z,0.8
2022-10-11T16:32:15.515Z,0.8
2022-10-11T16:37:15.959Z,0.6
2022-10-11T16:42:16.680Z,0.5
2022-10-11T16:47:17.210Z,0.5
2022-10-11T16:52:17.845Z,0.6
2022-10-11T16:57:18.456Z,0.6
2022-10-11T17:02:19.066Z,0.5
2022-10-11T17:07:19.647Z,0.6
2022-10-11T17:12:20.214Z,0.6
2022-10-11T17:17:20.840Z,0.6
2022-10-11T17:22:21.437Z,0.4
2022-10-11T17:27:21.974Z,0.4
2022-10-11T17:32:22.747Z,0.6
2022-10-11T17:37:23.163Z,0.6
2022-10-11T17:42:23.838Z,0.6
2022-10-11T17:47:24.630Z,0.4
2022-10-11T17:52:24.969Z,0.5
2022-10-11T17:57:25.689Z,0.4
2022-10-11T18:02:26.227Z,0.3
2022-10-11T18:07:26.840Z,0.3
2022-10-11T18:12:27.488Z,0.6
2022-10-11T18:17:28.454Z,1.1
2022-10-11T18:22:31.649Z,0.6
2022-10-11T18:27:29.201Z,0.6
2022-10-11T18:32:31.950Z,0.6
2022-10-11T18:37:30.273Z,0.6
2022-10-11T18:42:31.758Z,0.5
2022-10-11T18:47:31.487Z,0.8
2022-10-11T18:52:32.042Z,0.9
2022-10-11T18:57:32.668Z,0.5
2022-10-11T19:02:33.330Z,0.9
2022-10-11T19:07:33.924Z,0.5
2022-10-11T19:12:34.477Z,0.4
2022-10-11T19:17:35.322Z,0.4
2022-10-11T19:22:35.599Z,0.5
2022-10-11T19:27:36.313Z,0.5
2022-10-11T19:32:37.026Z,0.6
2022-10-11T19:37:37.487Z,0.5
2022-10-11T19:42:37.935Z,0.4
2022-10-11T19:47:38.734Z,0.5
2022-10-11T19:52:44.074Z,0.7
2022-10-11T19:57:39.737Z,0.7
2022-10-11T20:02:40.416Z,0.9
2022-10-11T20:07:40.883Z,0.6
2022-10-11T20:12:45.792Z,0.8
2022-10-11T20:17:42.415Z,0.9
2022-10-11T20:22:42.732Z,0.9
2022-10-11T20:27:43.581Z,1.1
2022-10-11T20:32:44.084Z,0.8
2022-10-11T20:37:44.803Z,0.7
2022-10-11T20:42:45.401Z,0.9
2022-10-11T20:47:46.041Z,1.0
2022-10-11T20:52:46.666Z,1.0
2022-10-11T20:57:47.278Z,0.6
2022-10-11T21:02:47.946Z,1.0
2022-10-11T21:07:48.544Z,0.8
2022-10-11T21:12:49.117Z,1.2
2022-10-11T21:17:49.985Z,1.3
2022-10-11T21:22:50.505Z,0.7
2022-10-11T21:27:51.048Z,0.9
2022-10-11T21:32:51.834Z,1.0
2022-10-11T21:37:52.746Z,0.7
2022-10-11T21:42:53.016Z,0.8
2022-10-11T21:47:53.840Z,1.1
2022-10-11T21:52:54.418Z,1.0
2022-10-11T21:57:55.026Z,1.0
2022-10-11T22:02:55.840Z,0.8
2022-10-11T22:07:56.496Z,0.8
2022-10-11T22:12:57.085Z,0.8
2022-10-11T22:17:58.080Z,1.0
2022-10-11T22:22:58.492Z,0.8
2022-10-11T22:27:59.159Z,0.9
2022-10-11T22:32:59.989Z,1.0
2022-10-11T22:38:00.554Z,0.8
2022-10-11T22:43:01.123Z,0.8
2022-10-11T22:48:01.938Z,0.7
2022-10-11T22:53:02.602Z,0.7
2022-10-11T22:58:03.286Z,0.8
2022-10-11T23:03:04.041Z,0.9
2022-10-11T23:08:04.708Z,1.0
2022-10-11T23:13:05.514Z,1.1
2022-10-11T23:18:06.281Z,1.2
2022-10-11T23:23:06.617Z,1.1
2022-10-11T23:28:07.375Z,1.6
2022-10-11T23:33:08.066Z,1.5
2022-10-11T23:38:08.688Z,1.3
2022-10-11T23:43:09.336Z,1.6
2022-10-11T23:48:09.960Z,2.1
2022-10-11T23:53:10.684Z,2.1
2022-10-11T23:58:11.290Z,1.6
